Time;durP1;ratioP1;P1;durP2;ratioP2;P2;SDS_P1;SDS_P2;PMS_P1;PMS_P2;Temp;Humidity;BMP_temperature;BMP_pressure;BME280_temperature;BME280_humidity;BME280_pressure;Samples;Min_cycle;Max_cycle;Signal;HPM_P1;HPM_P2
2023/04/18 00:01:45;;;;;;;5.15;3.63;;;10.50;99.90;;;;;;10094377;28;20239;-52
2023/04/18 00:06:36;;;;;;;5.78;3.13;;;10.40;99.90;;;;;;10092772;28;20629;-58
2023/04/18 00:11:27;;;;;;;6.82;4.03;;;10.40;99.90;;;;;;10094064;28;20033;-57
2023/04/18 00:16:17;;;;;;;4.63;3.35;;;10.40;99.90;;;;;;10096772;28;20025;-58
2023/04/18 00:21:09;;;;;;;7.18;4.25;;;10.30;99.90;;;;;;10096570;28;20049;-57
2023/04/18 00:26:01;;;;;;;6.43;4.18;;;10.20;99.90;;;;;;10101334;28;20047;-50
2023/04/18 00:30:51;;;;;;;6.18;4.07;;;10.20;99.90;;;;;;10095281;28;20101;-63
2023/04/18 00:35:42;;;;;;;5.97;3.85;;;10.20;99.90;;;;;;10096168;28;20021;-57
2023/04/18 00:40:33;;;;;;;7.88;4.63;;;10.10;99.90;;;;;;10096267;28;20411;-52
2023/04/18 00:45:24;;;;;;;7.95;4.63;;;10.20;99.90;;;;;;10078438;28;20445;-54
2023/04/18 00:50:15;;;;;;;7.40;4.53;;;10.10;99.90;;;;;;10095869;28;20052;-48
2023/04/18 00:55:07;;;;;;;7.50;4.55;;;10.10;99.90;;;;;;10090849;28;20451;-52
2023/04/18 01:00:07;;;;;;;7.10;4.25;;;10.10;99.90;;;;;;10103718;28;20564;-60
2023/04/18 01:04:58;;;;;;;9.82;5.43;;;10.10;99.90;;;;;;10103683;28;20091;-54
2023/04/18 01:09:48;;;;;;;6.25;4.75;;;9.90;99.90;;;;;;10112929;28;20033;-53
2023/04/18 01:14:42;;;;;;;9.30;4.80;;;9.80;99.90;;;;;;10103840;28;20333;-57
2023/04/18 01:19:33;;;;;;;9.50;4.93;;;9.80;99.90;;;;;;10103268;28;20091;-59
2023/04/18 01:24:25;;;;;;;9.77;5.78;;;9.80;99.90;;;;;;10096449;22;20053;-56
2023/04/18 01:29:16;;;;;;;9.63;5.30;;;9.70;99.90;;;;;;10063065;28;20065;-54
2023/04/18 01:34:07;;;;;;;9.25;5.32;;;9.70;99.90;;;;;;10062286;28;20037;-54
2023/04/18 01:38:59;;;;;;;12.25;6.32;;;9.70;99.90;;;;;;10062347;28;20033;-52
2023/04/18 01:43:49;;;;;;;7.82;4.57;;;9.60;99.90;;;;;;10059279;28;20457;-58
2023/04/18 01:48:40;;;;;;;7.65;4.53;;;9.70;99.90;;;;;;10063986;28;20029;-55
2023/04/18 01:53:31;;;;;;;8.57;4.97;;;9.60;99.90;;;;;;10066185;28;20447;-58
2023/04/18 01:58:22;;;;;;;7.00;5.15;;;9.60;99.90;;;;;;10063737;28;20022;-53
2023/04/18 02:03:13;;;;;;;8.13;5.35;;;9.50;99.90;;;;;;10061240;28;20404;-54
2023/04/18 02:08:03;;;;;;;11.23;5.57;;;9.40;99.90;;;;;;10060357;28;20022;-55
2023/04/18 02:12:54;;;;;;;8.85;5.82;;;9.40;99.90;;;;;;10060646;28;20128;-55
2023/04/18 02:17:45;;;;;;;8.02;5.07;;;9.30;99.90;;;;;;10060534;28;20109;-58
2023/04/18 02:22:39;;;;;;;12.48;5.97;;;9.30;99.90;;;;;;10060426;28;20045;-60
2023/04/18 02:27:29;;;;;;;11.27;6.18;;;9.30;99.90;;;;;;10058988;28;20037;-54
2023/04/18 02:32:20;;;;;;;8.45;5.50;;;9.30;99.90;;;;;;10061175;28;20045;-57
2023/04/18 02:37:11;;;;;;;7.38;5.43;;;9.30;99.90;;;;;;10060901;28;20030;-57
2023/04/18 02:42:01;;;;;;;9.90;5.45;;;9.20;99.90;;;;;;10060433;28;20038;-57
2023/04/18 02:46:52;;;;;;;9.52;5.68;;;9.20;99.90;;;;;;10060393;28;20028;-58
2023/04/18 02:51:42;;;;;;;9.38;6.15;;;9.20;99.90;;;;;;10058376;28;20037;-56
2023/04/18 02:56:38;;;;;;;9.63;6.13;;;9.10;99.90;;;;;;10059853;28;20032;-58
2023/04/18 03:01:29;;;;;;;9.48;4.95;;;9.20;99.90;;;;;;10058582;28;20029;-53
2023/04/18 03:06:19;;;;;;;8.32;4.95;;;9.10;99.90;;;;;;10051950;28;20484;-54
2023/04/18 03:11:10;;;;;;;7.57;5.07;;;9.00;99.90;;;;;;10057549;28;20510;-55
2023/04/18 03:16:01;;;;;;;10.52;5.63;;;9.00;99.90;;;;;;10047748;28;20029;-58
2023/04/18 03:20:51;;;;;;;8.10;4.78;;;9.10;99.90;;;;;;10051708;28;20025;-59
2023/04/18 03:25:42;;;;;;;10.60;5.28;;;9.00;99.90;;;;;;10062015;28;20054;-55
2023/04/18 03:30:33;;;;;;;10.02;5.13;;;9.00;99.90;;;;;;10063568;28;20036;-52
2023/04/18 03:35:23;;;;;;;7.22;4.85;;;8.90;99.90;;;;;;10058891;28;20150;-54
2023/04/18 03:40:14;;;;;;;9.45;5.80;;;8.90;99.90;;;;;;10057683;28;20025;-59
2023/04/18 03:45:05;;;;;;;10.32;5.47;;;8.90;99.90;;;;;;10058674;28;20436;-57
2023/04/18 03:49:56;;;;;;;14.02;5.88;;;8.90;99.90;;;;;;10057070;28;20048;-56
2023/04/18 03:54:47;;;;;;;7.63;5.45;;;8.90;99.90;;;;;;10059810;28;20056;-55
2023/04/18 03:59:37;;;;;;;10.65;5.88;;;8.90;99.90;;;;;;10060018;28;20029;-55
2023/04/18 04:04:28;;;;;;;8.25;5.53;;;8.90;99.90;;;;;;10057681;28;20537;-53
2023/04/18 04:09:18;;;;;;;9.35;6.15;;;8.90;99.90;;;;;;10061340;28;20047;-53
2023/04/18 04:14:09;;;;;;;9.82;5.90;;;8.90;99.90;;;;;;10056363;28;20041;-54
2023/04/18 04:18:59;;;;;;;7.95;4.72;;;9.00;99.90;;;;;;10055492;28;20403;-57
2023/04/18 04:23:50;;;;;;;8.90;5.70;;;9.00;99.90;;;;;;10058012;28;20111;-56
2023/04/18 04:28:42;;;;;;;7.40;4.93;;;9.00;99.90;;;;;;10057143;28;20041;-55
2023/04/18 04:33:33;;;;;;;8.43;5.93;;;8.90;99.90;;;;;;10061440;28;20462;-54
2023/04/18 04:38:24;;;;;;;9.18;4.97;;;8.90;99.90;;;;;;10056624;28;20029;-55
2023/04/18 04:43:15;;;;;;;8.27;5.13;;;8.90;99.90;;;;;;10056429;28;20041;-54
2023/04/18 04:48:06;;;;;;;12.95;6.28;;;8.90;99.90;;;;;;10056618;28;20038;-54
2023/04/18 04:52:57;;;;;;;10.95;5.57;;;9.00;99.90;;;;;;10056072;28;20112;-54
2023/04/18 04:57:47;;;;;;;11.23;6.07;;;9.00;99.90;;;;;;10055984;28;20487;-58
2023/04/18 05:02:38;;;;;;;12.27;6.22;;;9.20;99.90;;;;;;10054263;28;20039;-57
2023/04/18 05:07:29;;;;;;;10.02;5.40;;;9.10;99.90;;;;;;10053568;28;20105;-57
2023/04/18 05:12:20;;;;;;;10.98;6.13;;;9.20;99.90;;;;;;10055264;28;20045;-54
2023/04/18 05:17:11;;;;;;;11.68;5.65;;;9.20;99.90;;;;;;10055559;28;20021;-59
2023/04/18 05:22:01;;;;;;;8.57;5.90;;;9.20;99.90;;;;;;10056907;28;20033;-59
2023/04/18 05:26:52;;;;;;;13.07;5.70;;;9.30;99.90;;;;;;10057994;28;20132;-56
2023/04/18 05:31:43;;;;;;;9.35;5.63;;;9.40;99.90;;;;;;10054895;28;20642;-56
2023/04/18 05:36:34;;;;;;;10.38;5.47;;;9.40;99.90;;;;;;10062100;28;20105;-54
2023/04/18 05:41:24;;;;;;;8.13;5.28;;;9.50;99.90;;;;;;10059041;28;20416;-55
2023/04/18 05:46:15;;;;;;;9.13;5.97;;;9.60;99.90;;;;;;10063036;28;20068;-57
2023/04/18 05:51:06;;;;;;;10.50;5.20;;;9.50;99.90;;;;;;10062064;28;20130;-59
2023/04/18 05:55:57;;;;;;;12.98;6.43;;;9.50;99.90;;;;;;10063951;28;20060;-56
2023/04/18 06:00:48;;;;;;;10.73;5.97;;;9.50;99.90;;;;;;10063742;28;20033;-59
2023/04/18 06:05:39;;;;;;;8.02;5.68;;;9.50;99.90;;;;;;10063715;28;20025;-63
2023/04/18 06:10:30;;;;;;;10.55;5.45;;;9.50;99.90;;;;;;10060843;28;20025;-54
2023/04/18 06:15:21;;;;;;;8.85;5.88;;;9.60;99.90;;;;;;10061249;28;20508;-56
2023/04/18 06:20:11;;;;;;;9.82;5.55;;;9.60;99.90;;;;;;10061877;28;20075;-61
2023/04/18 06:25:02;;;;;;;10.48;5.68;;;9.60;99.90;;;;;;10063890;28;20057;-62
2023/04/18 06:29:53;;;;;;;9.82;5.68;;;9.70;99.90;;;;;;10060304;28;20389;-55
2023/04/18 06:34:44;;;;;;;7.57;5.35;;;9.70;99.90;;;;;;10060455;28;20538;-57
2023/04/18 06:39:34;;;;;;;8.10;5.47;;;9.80;99.90;;;;;;10060440;28;20017;-58
2023/04/18 06:44:25;;;;;;;8.68;5.93;;;9.80;99.90;;;;;;10058274;28;20025;-60
2023/04/18 06:49:16;;;;;;;9.93;6.05;;;9.80;99.90;;;;;;10044309;28;20036;-60
2023/04/18 06:54:06;;;;;;;12.55;5.97;;;9.90;99.90;;;;;;10047819;28;20410;-61
2023/04/18 06:58:57;;;;;;;9.18;5.15;;;9.90;99.90;;;;;;10053087;28;20431;-61
2023/04/18 07:03:47;;;;;;;11.45;5.38;;;10.10;99.90;;;;;;10055822;28;20582;-62
2023/04/18 07:08:38;;;;;;;11.27;5.97;;;10.00;99.90;;;;;;10049437;28;20361;-60
2023/04/18 07:13:29;;;;;;;8.68;5.57;;;10.10;99.90;;;;;;10054335;28;20065;-61
2023/04/18 07:18:19;;;;;;;10.88;5.97;;;10.00;99.90;;;;;;10050570;28;20018;-60
2023/04/18 07:23:10;;;;;;;7.95;5.05;;;10.00;99.90;;;;;;10047611;28;20327;-59
2023/04/18 07:28:01;;;;;;;7.30;5.10;;;10.00;99.90;;;;;;10054009;28;20029;-60
2023/04/18 07:32:52;;;;;;;10.18;6.13;;;10.00;99.90;;;;;;10053868;28;20500;-59
2023/04/18 07:37:43;;;;;;;9.10;6.00;;;10.00;99.90;;;;;;10052434;28;20340;-59
2023/04/18 07:42:33;;;;;;;8.77;5.28;;;9.90;99.90;;;;;;10056692;28;20226;-59
2023/04/18 07:47:26;;;;;;;8.65;4.82;;;9.80;99.90;;;;;;10057681;28;20033;-62
2023/04/18 07:52:17;;;;;;;10.00;5.20;;;9.70;99.90;;;;;;10056756;28;20056;-59
2023/04/18 07:57:08;;;;;;;10.85;5.47;;;10.00;99.90;;;;;;10056582;28;20041;-59
2023/04/18 08:01:58;;;;;;;9.95;6.05;;;10.10;99.90;;;;;;10048913;28;20041;-61
2023/04/18 08:06:49;;;;;;;8.52;5.25;;;9.90;99.90;;;;;;10057338;28;20109;-59
2023/04/18 08:11:41;;;;;;;9.38;5.65;;;10.10;99.90;;;;;;10055635;28;20123;-59
2023/04/18 08:16:31;;;;;;;8.45;5.20;;;10.00;99.90;;;;;;10054900;28;20048;-59
2023/04/18 08:21:22;;;;;;;10.48;6.65;;;9.90;99.90;;;;;;10055317;28;20055;-58
2023/04/18 08:26:13;;;;;;;10.93;5.53;;;9.90;99.90;;;;;;10053631;28;20049;-59
2023/04/18 08:31:03;;;;;;;11.40;6.35;;;9.90;99.90;;;;;;10063694;28;20099;-60
2023/04/18 08:35:54;;;;;;;11.07;6.15;;;9.80;99.90;;;;;;10058607;28;20048;-58
2023/04/18 08:40:45;;;;;;;10.68;5.15;;;9.80;99.90;;;;;;10056372;28;20524;-59
2023/04/18 08:45:37;;;;;;;16.25;5.80;;;9.90;99.90;;;;;;10056370;28;20029;-60
2023/04/18 08:50:27;;;;;;;8.82;5.20;;;9.90;99.90;;;;;;10055172;28;20411;-60
2023/04/18 08:55:21;;;;;;;7.93;5.60;;;9.90;99.90;;;;;;10055902;28;20056;-59
2023/04/18 09:00:12;;;;;;;12.93;5.30;;;9.90;99.90;;;;;;10055556;28;20110;-61
2023/04/18 09:05:10;;;;;;;11.98;6.55;;;10.00;99.90;;;;;;10057281;28;20490;-59
2023/04/18 09:10:00;;;;;;;10.35;5.32;;;10.00;99.90;;;;;;10052552;28;20408;-60
2023/04/18 09:14:56;;;;;;;10.95;5.70;;;10.00;99.90;;;;;;10055404;28;20036;-55
2023/04/18 09:19:48;;;;;;;10.45;6.53;;;10.10;99.90;;;;;;10065320;28;20113;-58
2023/04/18 09:24:49;;;;;;;9.60;6.13;;;10.20;99.90;;;;;;10062724;28;20451;-56
2023/04/18 09:29:45;;;;;;;13.55;6.05;;;10.30;99.90;;;;;;10057663;28;20017;-55
2023/04/18 09:34:41;;;;;;;11.27;5.65;;;10.50;99.90;;;;;;10055629;28;20439;-60
2023/04/18 09:39:32;;;;;;;10.75;5.00;;;10.50;99.90;;;;;;10060764;28;20126;-61
2023/04/18 09:44:22;;;;;;;10.90;6.07;;;10.50;99.90;;;;;;10061823;28;20123;-54
2023/04/18 09:49:13;;;;;;;9.00;5.75;;;10.50;99.90;;;;;;10059876;28;20057;-58
2023/04/18 09:54:05;;;;;;;9.18;5.68;;;10.60;99.90;;;;;;10059041;28;20132;-61
2023/04/18 09:59:21;;;;;;;9.90;6.40;;;10.80;99.90;;;;;;10063476;28;20026;-58
2023/04/18 10:04:13;;;;;;;11.30;6.40;;;11.00;99.90;;;;;;10053730;28;20045;-61
2023/04/18 10:09:04;;;;;;;8.15;5.35;;;11.30;99.90;;;;;;10061630;28;20033;-60
2023/04/18 10:13:57;;;;;;;9.80;5.93;;;11.60;99.90;;;;;;10061776;28;20033;-61
2023/04/18 10:18:49;;;;;;;10.73;5.43;;;12.30;99.90;;;;;;10058477;28;20037;-60
2023/04/18 10:23:39;;;;;;;9.27;6.47;;;12.60;99.90;;;;;;10060967;28;20111;-61
2023/04/18 10:28:53;;;;;;;11.82;6.45;;;12.60;99.90;;;;;;10063390;28;20087;-60
2023/04/18 10:34:00;;;;;;;8.55;5.53;;;12.70;99.90;;;;;;10060254;28;20124;-60
2023/04/18 10:38:58;;;;;;;12.02;5.97;;;12.90;99.90;;;;;;10062221;28;20033;-60
2023/04/18 10:44:17;;;;;;;9.70;6.25;;;13.50;99.90;;;;;;10046786;28;20040;-61
2023/04/18 10:49:20;;;;;;;11.45;6.80;;;13.90;99.90;;;;;;10052835;28;20041;-61
2023/04/18 10:54:49;;;;;;;10.63;6.15;;;13.90;99.90;;;;;;10050965;28;20483;-62
2023/04/18 10:59:42;;;;;;;12.63;6.53;;;13.70;99.90;;;;;;10052622;28;20196;-60
2023/04/18 11:04:33;;;;;;;9.70;5.97;;;13.70;99.90;;;;;;10057189;28;20072;-59
2023/04/18 11:09:24;;;;;;;11.60;6.40;;;13.80;99.90;;;;;;10051705;28;20030;-60
2023/04/18 11:14:15;;;;;;;10.48;6.82;;;13.80;99.90;;;;;;10054133;28;20128;-59
2023/04/18 11:19:26;;;;;;;8.43;5.63;;;14.00;99.90;;;;;;10058609;28;20574;-60
2023/04/18 11:24:21;;;;;;;8.43;5.72;;;13.90;99.90;;;;;;10049746;28;20064;-62
2023/04/18 11:29:12;;;;;;;10.35;5.60;;;13.80;99.90;;;;;;10059347;28;20036;-59
2023/04/18 11:34:03;;;;;;;11.05;6.82;;;13.80;99.90;;;;;;10057633;28;20404;-60
2023/04/18 11:38:55;;;;;;;11.10;7.18;;;13.70;99.90;;;;;;10060278;28;20034;-60
2023/04/18 11:43:45;;;;;;;12.90;6.20;;;13.60;99.90;;;;;;10057728;28;20025;-60
2023/04/18 11:48:41;;;;;;;10.27;6.72;;;13.60;99.90;;;;;;10055613;28;20037;-59
2023/04/18 11:53:37;;;;;;;10.98;6.72;;;13.80;99.90;;;;;;10055096;28;20148;-59
2023/04/18 11:58:35;;;;;;;10.90;6.47;;;13.80;99.90;;;;;;10058986;28;20384;-60
2023/04/18 12:03:27;;;;;;;10.63;5.78;;;13.70;99.90;;;;;;10057319;28;20522;-61
2023/04/18 12:08:19;;;;;;;10.30;6.40;;;13.90;99.90;;;;;;10049797;28;20099;-61
2023/04/18 12:13:10;;;;;;;12.35;6.20;;;13.90;99.90;;;;;;10060757;28;20051;-60
2023/04/18 12:18:02;;;;;;;11.70;6.32;;;14.10;99.90;;;;;;10055332;28;20032;-60
2023/04/18 12:22:53;;;;;;;8.23;5.63;;;14.30;99.90;;;;;;10046420;28;20162;-60
2023/04/18 12:27:58;;;;;;;9.45;5.75;;;14.60;99.90;;;;;;10059053;28;20033;-61
2023/04/18 12:32:54;;;;;;;10.35;5.93;;;14.60;99.90;;;;;;10056247;28;20029;-59
2023/04/18 12:37:49;;;;;;;10.90;6.60;;;14.40;99.90;;;;;;10060769;28;20415;-59
2023/04/18 12:42:42;;;;;;;8.18;5.50;;;14.40;99.90;;;;;;10058055;28;20079;-63
2023/04/18 12:47:34;;;;;;;7.35;5.05;;;14.70;99.90;;;;;;10065690;28;20049;-60
2023/04/18 12:52:25;;;;;;;9.23;6.43;;;14.60;99.90;;;;;;10059246;28;20436;-61
2023/04/18 12:57:16;;;;;;;10.15;5.47;;;14.40;99.90;;;;;;10064680;28;20082;-64
2023/04/18 13:02:07;;;;;;;9.65;5.80;;;14.40;99.90;;;;;;10063798;28;20037;-61
2023/04/18 13:06:57;;;;;;;9.90;6.03;;;14.40;99.90;;;;;;10063722;28;20404;-62
2023/04/18 13:11:48;;;;;;;7.03;4.88;;;14.30;99.90;;;;;;10062132;28;20049;-61
2023/04/18 13:16:39;;;;;;;8.30;5.40;;;14.20;99.90;;;;;;10063341;28;20027;-61
2023/04/18 13:21:30;;;;;;;9.50;5.55;;;14.10;99.90;;;;;;10063399;28;20446;-61
2023/04/18 13:26:20;;;;;;;9.95;5.38;;;14.10;99.90;;;;;;10066520;28;20056;-61
2023/04/18 13:31:11;;;;;;;10.50;5.65;;;14.20;99.90;;;;;;10064482;28;20044;-64
2023/04/18 13:36:02;;;;;;;9.75;6.45;;;14.40;99.90;;;;;;10063166;28;20025;-63
2023/04/18 13:40:52;;;;;;;7.07;5.20;;;14.50;99.90;;;;;;10062149;28;21892;-65
2023/04/18 13:45:46;;;;;;;8.32;5.10;;;15.00;99.90;;;;;;10062499;28;20124;-62
2023/04/18 13:50:37;;;;;;;6.82;4.63;;;15.30;99.90;;;;;;10060786;28;20072;-61
2023/04/18 13:55:27;;;;;;;9.65;5.10;;;15.30;99.90;;;;;;10062275;28;20044;-63
2023/04/18 14:00:19;;;;;;;6.93;5.25;;;15.80;99.90;;;;;;10063432;28;20634;-61
2023/04/18 14:05:09;;;;;;;9.23;5.53;;;15.80;99.90;;;;;;10061978;28;20037;-60
2023/04/18 14:10:00;;;;;;;7.68;4.75;;;15.80;99.90;;;;;;10062284;28;20427;-60
2023/04/18 14:14:51;;;;;;;7.13;4.55;;;16.40;99.90;;;;;;10077624;28;20504;-61
2023/04/18 14:19:42;;;;;;;8.43;4.88;;;16.50;99.90;;;;;;10057978;28;20025;-60
2023/04/18 14:24:35;;;;;;;8.10;5.35;;;16.50;99.90;;;;;;10063399;28;20049;-64
2023/04/18 14:29:25;;;;;;;9.27;4.95;;;16.70;99.90;;;;;;10064168;28;20571;-60
2023/04/18 14:34:16;;;;;;;7.72;4.28;;;17.50;99.90;;;;;;10055545;28;20145;-60
2023/04/18 14:39:07;;;;;;;7.05;4.65;;;17.70;99.90;;;;;;10063117;28;20449;-59
2023/04/18 14:43:58;;;;;;;9.02;4.80;;;17.00;99.90;;;;;;10063361;28;20037;-60
2023/04/18 14:48:49;;;;;;;5.97;4.15;;;17.00;99.90;;;;;;10060262;28;20033;-64
2023/04/18 14:53:39;;;;;;;9.65;4.03;;;17.10;99.90;;;;;;10057724;28;20522;-61
2023/04/18 14:58:30;;;;;;;6.90;4.65;;;17.40;99.90;;;;;;10059560;28;20112;-61
2023/04/18 15:03:21;;;;;;;6.55;4.38;;;17.40;99.90;;;;;;10059528;28;20053;-61
2023/04/18 15:08:13;;;;;;;5.53;4.45;;;18.10;99.90;;;;;;10059018;28;20543;-60
2023/04/18 15:13:04;;;;;;;6.00;4.10;;;18.70;99.70;;;;;;10058748;28;20503;-63
2023/04/18 15:17:54;;;;;;;9.02;4.55;;;18.90;99.60;;;;;;10058081;28;20021;-60
2023/04/18 15:22:45;;;;;;;8.32;5.00;;;18.40;99.30;;;;;;10057873;28;20196;-59
2023/04/18 15:27:35;;;;;;;5.13;3.58;;;18.50;99.30;;;;;;10061444;28;20044;-62
2023/04/18 15:32:26;;;;;;;7.10;4.53;;;17.90;99.10;;;;;;10057553;28;20053;-62
2023/04/18 15:37:17;;;;;;;6.10;4.10;;;18.90;98.80;;;;;;10060154;28;20109;-61
2023/04/18 15:42:07;;;;;;;5.32;3.90;;;18.80;98.60;;;;;;10060424;28;20490;-61
2023/04/18 15:47:00;;;;;;;6.53;3.83;;;18.90;98.50;;;;;;10057644;28;20113;-61
2023/04/18 15:51:50;;;;;;;5.93;3.92;;;21.30;96.80;;;;;;10056130;28;20037;-60
2023/04/18 15:56:42;;;;;;;4.68;3.35;;;24.10;94.70;;;;;;10064895;28;20030;-62
2023/04/18 16:01:34;;;;;;;5.18;3.30;;;25.60;93.40;;;;;;10057145;28;20037;-64
2023/04/18 16:06:26;;;;;;;4.88;3.50;;;23.00;93.70;;;;;;10059487;28;20553;-62
2023/04/18 16:11:18;;;;;;;6.45;3.97;;;21.60;95.00;;;;;;10056916;28;20268;-61
2023/04/18 16:16:09;;;;;;;3.90;3.13;;;19.70;96.20;;;;;;10057195;28;20029;-58
2023/04/18 16:21:00;;;;;;;4.65;3.20;;;19.80;95.80;;;;;;10056340;28;20021;-60
2023/04/18 16:25:53;;;;;;;6.82;3.90;;;22.80;93.60;;;;;;10056350;28;20060;-59
2023/04/18 16:30:45;;;;;;;5.15;3.30;;;24.00;92.20;;;;;;10055532;28;20025;-60
2023/04/18 16:35:35;;;;;;;3.67;3.00;;;22.10;93.30;;;;;;10056339;28;20092;-63
2023/04/18 16:40:29;;;;;;;6.15;2.90;;;20.40;94.40;;;;;;10055946;28;20037;-63
2023/04/18 16:45:19;;;;;;;4.15;2.90;;;18.90;95.40;;;;;;10056337;28;20017;-60
2023/04/18 16:50:10;;;;;;;4.13;2.63;;;18.10;95.80;;;;;;10053644;28;20037;-62
2023/04/18 16:55:01;;;;;;;3.67;3.15;;;17.70;96.00;;;;;;10055948;28;20048;-61
2023/04/18 16:59:51;;;;;;;2.92;2.47;;;18.90;95.60;;;;;;10056180;28;20415;-61
2023/04/18 17:04:42;;;;;;;3.67;2.85;;;22.80;92.90;;;;;;10056055;28;20449;-63
2023/04/18 17:09:33;;;;;;;5.05;2.72;;;23.80;92.00;;;;;;10056588;28;20017;-60
2023/04/18 17:14:24;;;;;;;3.08;2.42;;;23.50;92.30;;;;;;10053909;28;20045;-59
2023/04/18 17:19:15;;;;;;;3.53;2.55;;;21.10;93.60;;;;;;10055284;28;20063;-58
2023/04/18 17:24:06;;;;;;;5.60;3.58;;;19.40;94.30;;;;;;10044247;28;20052;-58
2023/04/18 17:28:56;;;;;;;3.92;2.28;;;18.10;94.80;;;;;;10051406;28;20026;-58
2023/04/18 17:33:49;;;;;;;4.70;2.30;;;17.50;95.10;;;;;;10051438;28;20518;-57
2023/04/18 17:38:41;;;;;;;3.90;2.72;;;17.20;94.80;;;;;;10059334;28;20017;-57
2023/04/18 17:43:31;;;;;;;3.67;2.47;;;16.90;94.90;;;;;;10063105;28;20025;-58
2023/04/18 17:48:22;;;;;;;4.22;2.40;;;16.70;94.90;;;;;;10069762;28;20130;-59
2023/04/18 17:53:12;;;;;;;4.55;2.67;;;16.50;94.90;;;;;;10051329;28;20397;-56
2023/04/18 17:58:04;;;;;;;4.57;2.63;;;16.30;95.10;;;;;;10061302;28;20198;-62
2023/04/18 18:02:55;;;;;;;3.75;2.80;;;16.20;95.10;;;;;;10060600;28;20025;-59
2023/04/18 18:07:46;;;;;;;5.22;2.90;;;16.10;95.10;;;;;;10044816;28;20405;-58
2023/04/18 18:12:38;;;;;;;4.45;2.88;;;16.00;95.20;;;;;;10048738;28;20136;-66
2023/04/18 18:17:29;;;;;;;6.68;2.60;;;15.80;95.40;;;;;;10049344;28;20056;-60
2023/04/18 18:22:21;;;;;;;3.97;2.42;;;15.70;95.60;;;;;;10046992;28;20030;-66
2023/04/18 18:27:12;;;;;;;4.35;2.90;;;15.50;96.00;;;;;;10052772;28;20033;-65
2023/04/18 18:32:03;;;;;;;3.85;2.65;;;15.40;96.20;;;;;;10041846;28;20053;-61
2023/04/18 18:36:53;;;;;;;5.80;3.35;;;15.20;96.50;;;;;;10051737;28;20615;-61
2023/04/18 18:41:44;;;;;;;4.05;2.95;;;15.10;96.70;;;;;;10049623;28;20030;-61
2023/04/18 18:46:35;;;;;;;4.40;3.20;;;15.10;96.90;;;;;;10056697;28;20022;-60
2023/04/18 18:51:26;;;;;;;4.90;2.90;;;15.00;97.10;;;;;;10054183;28;20041;-71
2023/04/18 18:56:17;;;;;;;4.05;3.03;;;14.90;97.30;;;;;;10059192;28;20030;-64
2023/04/18 19:01:10;;;;;;;3.38;2.25;;;14.90;97.40;;;;;;10061485;28;20029;-64
2023/04/18 19:06:02;;;;;;;6.18;2.85;;;14.80;97.60;;;;;;10059706;28;20747;-67
2023/04/18 19:10:53;;;;;;;5.78;3.20;;;14.70;97.80;;;;;;10063076;28;20029;-63
2023/04/18 19:15:43;;;;;;;4.45;3.03;;;14.70;97.90;;;;;;10059304;28;20029;-64
2023/04/18 19:20:34;;;;;;;5.25;3.25;;;14.60;98.10;;;;;;10066164;28;20488;-64
2023/04/18 19:25:25;;;;;;;6.50;3.30;;;14.50;98.20;;;;;;10068943;28;20068;-66
2023/04/18 19:30:15;;;;;;;6.60;2.97;;;14.50;98.40;;;;;;10060977;28;20090;-66
2023/04/18 19:35:08;;;;;;;8.18;3.45;;;14.50;98.40;;;;;;10062330;28;20048;-63
2023/04/18 19:39:59;;;;;;;5.07;3.10;;;14.50;98.50;;;;;;10064172;28;20716;-60
2023/04/18 19:44:49;;;;;;;6.40;3.20;;;14.40;98.60;;;;;;10061460;28;20035;-62
2023/04/18 19:49:40;;;;;;;4.03;2.85;;;14.40;98.70;;;;;;10064462;28;20400;-63
2023/04/18 19:54:34;;;;;;;6.13;3.17;;;14.30;98.90;;;;;;10060461;28;20041;-63
2023/04/18 19:59:25;;;;;;;5.03;2.90;;;14.30;99.00;;;;;;10062107;28;20410;-63
2023/04/18 20:04:15;;;;;;;4.72;2.72;;;14.20;99.10;;;;;;10055141;28;20037;-67
2023/04/18 20:09:11;;;;;;;5.57;3.50;;;14.10;99.40;;;;;;10057087;28;20024;-63
2023/04/18 20:14:03;;;;;;;4.32;3.03;;;14.00;99.60;;;;;;10057863;28;20041;-67
2023/04/18 20:18:55;;;;;;;5.80;3.60;;;14.00;99.80;;;;;;10058446;28;20031;-65
2023/04/18 20:23:46;;;;;;;5.43;3.63;;;13.90;99.80;;;;;;10062135;28;20067;-67
2023/04/18 20:28:36;;;;;;;6.40;3.60;;;13.80;99.90;;;;;;10059345;28;20388;-62
2023/04/18 20:33:27;;;;;;;5.90;3.83;;;13.80;99.90;;;;;;10057717;28;20491;-62
2023/04/18 20:38:19;;;;;;;4.93;3.83;;;13.70;99.90;;;;;;10065961;28;20108;-62
2023/04/18 20:43:11;;;;;;;5.40;3.17;;;13.60;99.90;;;;;;10057619;28;20446;-61
2023/04/18 20:48:02;;;;;;;4.63;3.28;;;13.60;99.90;;;;;;10075601;28;20025;-62
2023/04/18 20:52:54;;;;;;;5.88;3.88;;;13.50;99.90;;;;;;10061199;28;20064;-62
2023/04/18 20:57:44;;;;;;;5.97;3.88;;;13.50;99.90;;;;;;10060630;28;20029;-63
2023/04/18 21:02:35;;;;;;;6.18;3.50;;;13.40;99.90;;;;;;10056141;28;20029;-64
2023/04/18 21:07:26;;;;;;;5.90;3.60;;;13.40;99.90;;;;;;10058021;28;20025;-62
2023/04/18 21:12:16;;;;;;;5.05;3.10;;;13.30;99.90;;;;;;10059615;28;20049;-73
2023/04/18 21:17:09;;;;;;;5.22;3.60;;;13.20;99.90;;;;;;10076089;28;20026;-66
2023/04/18 21:21:59;;;;;;;5.25;4.10;;;13.20;99.90;;;;;;10077664;28;20030;-69
2023/04/18 21:26:50;;;;;;;4.78;3.10;;;13.20;99.90;;;;;;10075547;28;20045;-71
2023/04/18 21:31:41;;;;;;;6.55;3.28;;;13.10;99.90;;;;;;10074195;28;20037;-67
2023/04/18 21:36:31;;;;;;;5.45;3.85;;;13.10;99.90;;;;;;10076474;28;20032;-65
2023/04/18 21:41:23;;;;;;;6.28;3.40;;;13.10;99.90;;;;;;10071510;28;20286;-61
2023/04/18 21:46:14;;;;;;;6.88;4.00;;;13.10;99.90;;;;;;10072502;28;20555;-68
2023/04/18 21:51:05;;;;;;;6.10;3.85;;;13.00;99.90;;;;;;10070647;28;20411;-64
2023/04/18 21:55:56;;;;;;;6.97;4.30;;;13.00;99.90;;;;;;10072051;28;20032;-60
2023/04/18 22:00:46;;;;;;;5.95;3.92;;;13.00;99.90;;;;;;10069776;28;20025;-63
2023/04/18 22:05:37;;;;;;;6.70;3.70;;;13.00;99.90;;;;;;10069164;28;20049;-60
2023/04/18 22:10:28;;;;;;;5.80;3.70;;;13.00;99.90;;;;;;10067098;28;20041;-61
2023/04/18 22:15:19;;;;;;;8.38;4.30;;;13.00;99.90;;;;;;10068418;28;20037;-70
2023/04/18 22:20:10;;;;;;;6.80;4.53;;;13.00;99.90;;;;;;10067546;28;20033;-65
2023/04/18 22:25:01;;;;;;;6.00;3.63;;;13.10;99.90;;;;;;10066373;28;20069;-62
2023/04/18 22:29:51;;;;;;;6.50;4.25;;;13.10;99.90;;;;;;10061726;28;20388;-62
2023/04/18 22:34:43;;;;;;;7.25;4.47;;;13.10;99.90;;;;;;10062514;28;20183;-62
2023/04/18 22:39:34;;;;;;;7.97;3.55;;;13.10;99.90;;;;;;10069206;28;20172;-62
2023/04/18 22:44:25;;;;;;;6.72;3.92;;;13.10;99.90;;;;;;10061734;28;20264;-62
2023/04/18 22:49:16;;;;;;;6.82;3.90;;;13.10;99.90;;;;;;10061137;28;20036;-65
2023/04/18 22:54:07;;;;;;;7.18;4.22;;;13.10;99.90;;;;;;10060303;28;20080;-62
2023/04/18 22:58:57;;;;;;;7.93;4.25;;;13.10;99.90;;;;;;10059444;28;20041;-60
2023/04/18 23:03:48;;;;;;;6.72;4.20;;;13.10;99.90;;;;;;10059228;28;20037;-63
2023/04/18 23:08:39;;;;;;;7.10;4.25;;;13.00;99.90;;;;;;10058906;28;20100;-61
2023/04/18 23:13:29;;;;;;;6.60;4.20;;;13.00;99.90;;;;;;10059374;28;20151;-60
2023/04/18 23:18:20;;;;;;;6.40;3.92;;;13.00;99.90;;;;;;10056419;28;20365;-61
2023/04/18 23:23:11;;;;;;;8.02;3.75;;;12.90;99.90;;;;;;10071063;28;20053;-61
2023/04/18 23:28:01;;;;;;;8.13;4.45;;;12.90;99.90;;;;;;10058487;28;20082;-68
2023/04/18 23:32:52;;;;;;;8.18;4.90;;;12.90;99.90;;;;;;10061485;28;20041;-66
2023/04/18 23:37:43;;;;;;;7.75;4.30;;;12.90;99.90;;;;;;10057798;28;20649;-67
2023/04/18 23:42:34;;;;;;;6.47;4.72;;;12.80;99.90;;;;;;10059198;28;20151;-62
2023/04/18 23:47:24;;;;;;;8.40;4.60;;;12.80;99.90;;;;;;10058173;28;20040;-64
2023/04/18 23:52:15;;;;;;;8.07;4.47;;;12.80;99.90;;;;;;10053111;28;21154;-68
2023/04/18 23:57:05;;;;;;;11.50;5.60;;;12.70;99.90;;;;;;10059112;28;20028;-65
